Time;durP1;ratioP1;P1;durP2;ratioP2;P2;SDS_P1;SDS_P2;PMS_P1;PMS_P2;Temp;Humidity;BMP_temperature;BMP_pressure;BME280_temperature;BME280_humidity;BME280_pressure;Samples;Min_cycle;Max_cycle;Signal;HPM_P1;HPM_P2
2021/06/24 00:00:46;;;;;;;;;;;;;;;-142.75;62.82;77659.00;5067584;28;19924;-79
2021/06/24 00:03:12;;;;;;;;;;;;;;;-142.75;62.84;77657.03;5055285;28;19916;-81
2021/06/24 00:05:37;;;;;;;;;;;;;;;-142.75;62.83;77657.03;5065140;28;19927;-79
2021/06/24 00:08:02;;;;;;;;;;;;;;;-142.75;63.26;77660.97;5067163;28;19948;-79
2021/06/24 00:10:28;;;;;;;;;;;;;;;-142.75;63.33;77660.97;5069546;28;19970;-82
2021/06/24 00:12:53;;;;;;;;;;;;;;;-142.75;63.06;77668.84;5055402;28;20035;-80
2021/06/24 00:15:18;;;;;;;;;;;;;;;-142.75;63.30;77662.94;5055548;28;19921;-79
2021/06/24 00:17:43;;;;;;;;;;;;;;;-142.75;63.25;77649.16;5066884;28;19920;-79
2021/06/24 00:20:09;;;;;;;;;;;;;;;-142.75;63.40;77653.09;5065743;28;19966;-81
2021/06/24 00:22:34;;;;;;;;;;;;;;;-142.75;63.49;77649.16;5056073;28;20030;-80
2021/06/24 00:24:59;;;;;;;;;;;;;;;-142.75;63.61;77651.13;5055641;28;20393;-80
2021/06/24 00:27:25;;;;;;;;;;;;;;;-142.75;63.37;77651.13;5066573;28;19921;-82
2021/06/24 00:29:50;;;;;;;;;;;;;;;-142.75;63.17;77655.06;5061963;28;20532;-79
2021/06/24 00:32:15;;;;;;;;;;;;;;;-142.75;63.36;77659.00;5064670;28;20402;-80
2021/06/24 00:34:40;;;;;;;;;;;;;;;-142.75;63.35;77664.91;5056222;28;19917;-80
2021/06/24 00:37:05;;;;;;;;;;;;;;;-142.75;63.36;77666.88;5066058;28;19924;-79
2021/06/24 00:39:31;;;;;;;;;;;;;;;-142.75;63.49;77662.94;5055564;28;19917;-79
2021/06/24 00:41:56;;;;;;;;;;;;;;;-142.75;63.44;77664.91;5055616;28;19921;-80
2021/06/24 00:44:21;;;;;;;;;;;;;;;-142.75;63.29;77668.84;5063064;28;19955;-80
2021/06/24 00:46:46;;;;;;;;;;;;;;;-142.75;63.17;77666.88;5055232;28;19916;-79
2021/06/24 00:49:12;;;;;;;;;;;;;;;-142.75;63.10;77668.84;5053936;28;19955;-80
2021/06/24 00:51:37;;;;;;;;;;;;;;;-142.75;63.39;77668.84;5063386;28;20320;-78
2021/06/24 00:54:02;;;;;;;;;;;;;;;-142.75;63.35;77668.84;5061174;28;19917;-79
2021/06/24 00:56:30;;;;;;;;;;;;;;;-142.75;63.31;77668.84;5062487;28;19923;-77
2021/06/24 00:58:55;;;;;;;;;;;;;;;-142.75;63.42;77662.94;5053626;28;19921;-79
2021/06/24 01:01:21;;;;;;;;;;;;;;;-142.75;63.55;77670.81;5063111;28;19920;-79
2021/06/24 01:03:46;;;;;;;;;;;;;;;-142.75;63.41;77672.78;5060772;28;19916;-78
2021/06/24 01:06:11;;;;;;;;;;;;;;;-142.75;63.61;77674.75;5054149;28;19965;-79
2021/06/24 01:08:36;;;;;;;;;;;;;;;-142.75;64.63;77680.66;5062748;28;20016;-81
2021/06/24 01:11:01;;;;;;;;;;;;;;;-142.75;64.44;77676.72;5062277;28;19916;-79
2021/06/24 01:13:27;;;;;;;;;;;;;;;-142.75;64.31;77678.69;5060882;28;19923;-79
2021/06/24 01:15:52;;;;;;;;;;;;;;;-142.75;64.94;77676.72;5067643;28;20389;-80
2021/06/24 01:18:17;;;;;;;;;;;;;;;-142.75;64.68;77688.53;5054112;28;19923;-80
2021/06/24 01:20:43;;;;;;;;;;;;;;;-142.75;64.57;77676.72;5062978;28;19935;-79
2021/06/24 01:23:08;;;;;;;;;;;;;;;-142.75;65.00;77684.59;5053263;28;19924;-79
2021/06/24 01:25:34;;;;;;;;;;;;;;;-142.75;65.40;77682.63;5052380;28;19963;-78
2021/06/24 01:28:01;;;;;;;;;;;;;;;-142.75;65.24;77682.63;5060947;28;19923;-80
2021/06/24 01:30:27;;;;;;;;;;;;;;;-142.75;64.84;77682.63;5068230;28;19947;-81
2021/06/24 01:32:52;;;;;;;;;;;;;;;-142.75;64.54;77676.72;5057611;28;19916;-79
2021/06/24 01:35:21;;;;;;;;;;;;;;;-142.75;64.68;77674.75;5063491;28;19916;-79
2021/06/24 01:37:47;;;;;;;;;;;;;;;-142.75;64.52;77672.78;5056770;28;20436;-78
2021/06/24 01:40:13;;;;;;;;;;;;;;;-142.75;64.91;77678.69;5051742;28;19925;-80
2021/06/24 01:42:39;;;;;;;;;;;;;;;-142.75;64.88;77672.78;5054951;28;20097;-79
2021/06/24 01:45:04;;;;;;;;;;;;;;;-142.75;64.91;77678.69;5061496;28;20019;-77
2021/06/24 01:47:29;;;;;;;;;;;;;;;-142.75;64.71;77678.69;5052878;28;19916;-79
2021/06/24 01:49:54;;;;;;;;;;;;;;;-142.75;64.54;77678.69;5059415;28;19982;-80
2021/06/24 01:52:20;;;;;;;;;;;;;;;-142.75;64.50;77676.72;5062077;28;19917;-79
2021/06/24 01:54:46;;;;;;;;;;;;;;;-142.75;64.47;77668.84;5061675;28;19935;-78
2021/06/24 01:57:16;;;;;;;;;;;;;;;-142.75;64.50;77668.84;5060837;28;20003;-79
2021/06/24 01:59:42;;;;;;;;;;;;;;;-142.75;64.57;77672.78;5058307;28;19917;-79
2021/06/24 02:02:07;;;;;;;;;;;;;;;-142.75;64.91;77674.75;5067864;28;20035;-79
2021/06/24 02:04:32;;;;;;;;;;;;;;;-142.75;64.63;77672.78;5052631;28;19970;-79
2021/06/24 02:06:57;;;;;;;;;;;;;;;-142.75;64.70;77670.81;5056822;28;20015;-80
2021/06/24 02:09:23;;;;;;;;;;;;;;;-142.75;64.74;77672.78;5059638;28;20016;-80
2021/06/24 02:11:48;;;;;;;;;;;;;;;-142.75;65.34;77668.84;5054948;28;19916;-80
2021/06/24 02:14:13;;;;;;;;;;;;;;;-142.75;65.09;77672.78;5063239;28;20403;-80
2021/06/24 02:16:38;;;;;;;;;;;;;;;-142.75;65.06;77680.66;5050773;28;19923;-82
2021/06/24 02:19:03;;;;;;;;;;;;;;;-142.75;65.43;77688.53;5060859;28;19917;-79
2021/06/24 02:21:29;;;;;;;;;;;;;;;-142.75;65.58;77692.47;5053872;28;19927;-79
2021/06/24 02:23:54;;;;;;;;;;;;;;;-142.75;65.64;77690.50;5058041;28;19923;-79
2021/06/24 02:26:19;;;;;;;;;;;;;;;-142.75;65.65;77688.53;5066026;28;19928;-80
2021/06/24 02:28:44;;;;;;;;;;;;;;;-142.75;65.28;77702.31;5062116;28;20555;-79
2021/06/24 02:31:09;;;;;;;;;;;;;;;-142.75;65.77;77698.38;5053633;28;19963;-80
2021/06/24 02:33:35;;;;;;;;;;;;;;;-142.75;65.75;77700.34;5053087;28;19921;-79
2021/06/24 02:36:00;;;;;;;;;;;;;;;-142.75;65.77;77702.31;5062133;28;19916;-78
2021/06/24 02:38:25;;;;;;;;;;;;;;;-142.75;65.97;77696.41;5051996;28;19917;-79
2021/06/24 02:40:52;;;;;;;;;;;;;;;-142.75;66.28;77696.41;5062752;28;19944;-79
2021/06/24 02:43:17;;;;;;;;;;;;;;;-142.75;66.57;77684.59;5063979;28;19970;-80
2021/06/24 02:45:43;;;;;;;;;;;;;;;-142.75;66.48;77684.59;5057970;28;19932;-79
2021/06/24 02:48:08;;;;;;;;;;;;;;;-142.75;66.33;77686.56;5063029;28;19917;-79
2021/06/24 02:50:34;;;;;;;;;;;;;;;-142.75;66.20;77690.50;5051164;28;20278;-79
2021/06/24 02:52:59;;;;;;;;;;;;;;;-142.75;66.39;77700.34;5053553;28;19916;-80
2021/06/24 02:55:30;;;;;;;;;;;;;;;-142.75;66.33;77704.28;5060609;28;20488;-80
2021/06/24 02:57:55;;;;;;;;;;;;;;;-142.75;66.14;77702.31;5052990;28;19963;-80
2021/06/24 03:00:21;;;;;;;;;;;;;;;-142.75;65.81;77704.28;5052345;28;19921;-79
2021/06/24 03:02:46;;;;;;;;;;;;;;;-142.75;65.91;77702.31;5051432;28;20274;-79
2021/06/24 03:05:11;;;;;;;;;;;;;;;-142.75;66.07;77692.47;5050782;28;20007;-80
2021/06/24 03:07:36;;;;;;;;;;;;;;;-142.75;66.20;77696.41;5055649;28;20393;-80
2021/06/24 03:10:02;;;;;;;;;;;;;;;-142.75;66.42;77694.44;5051331;28;20007;-80
2021/06/24 03:12:27;;;;;;;;;;;;;;;-142.75;66.94;77692.47;5069608;28;20262;-79
2021/06/24 03:14:53;;;;;;;;;;;;;;;-142.75;66.88;77688.53;5053214;28;19917;-79
2021/06/24 03:17:18;;;;;;;;;;;;;;;-142.75;66.72;77690.50;5050423;28;19923;-79
2021/06/24 03:19:43;;;;;;;;;;;;;;;-142.75;66.73;77692.47;5052654;28;20374;-79
2021/06/24 03:22:08;;;;;;;;;;;;;;;-142.75;67.13;77692.47;5063908;28;19990;-80
2021/06/24 03:24:34;;;;;;;;;;;;;;;-142.75;67.47;77682.63;5051567;28;19954;-80
2021/06/24 03:26:59;;;;;;;;;;;;;;;-142.75;67.25;77682.63;5051805;28;19928;-78
2021/06/24 03:29:24;;;;;;;;;;;;;;;-142.75;66.94;77684.59;5050123;28;19923;-79
2021/06/24 03:31:49;;;;;;;;;;;;;;;-142.75;66.38;77684.59;5060331;28;19917;-79
2021/06/24 03:34:14;;;;;;;;;;;;;;;-142.75;66.51;77692.47;5051723;28;19923;-79
2021/06/24 03:36:40;;;;;;;;;;;;;;;-142.75;66.98;77688.53;5052743;28;20011;-79
2021/06/24 03:39:05;;;;;;;;;;;;;;;-142.75;66.93;77690.50;5051299;28;19927;-80
2021/06/24 03:41:30;;;;;;;;;;;;;;;-142.75;67.00;77680.66;5050006;28;20416;-78
2021/06/24 03:43:56;;;;;;;;;;;;;;;-142.75;66.70;77680.66;5064469;28;19917;-79
2021/06/24 03:46:24;;;;;;;;;;;;;;;-142.75;66.86;77680.66;5057509;28;19916;-79
2021/06/24 03:48:49;;;;;;;;;;;;;;;-142.75;66.92;77676.72;5060850;28;19978;-79
2021/06/24 03:51:15;;;;;;;;;;;;;;;-142.75;67.06;77680.66;5059910;28;19921;-79
2021/06/24 03:53:40;;;;;;;;;;;;;;;-142.75;67.20;77680.66;5049325;28;19924;-79
2021/06/24 03:56:05;;;;;;;;;;;;;;;-142.75;67.33;77682.63;5062334;28;19920;-79
2021/06/24 03:58:30;;;;;;;;;;;;;;;-142.75;67.17;77680.66;5060877;28;19943;-78
2021/06/24 04:00:57;;;;;;;;;;;;;;;-142.75;67.22;77668.84;5051691;28;19960;-80
2021/06/24 04:03:22;;;;;;;;;;;;;;;-142.75;66.92;77672.78;5051169;28;20504;-79
2021/06/24 04:05:47;;;;;;;;;;;;;;;-142.75;66.79;77662.94;5074554;22;19924;-81
2021/06/24 04:08:13;;;;;;;;;;;;;;;-142.75;66.62;77672.78;5070131;28;19939;-82
2021/06/24 04:10:38;;;;;;;;;;;;;;;-142.75;66.85;77657.03;5070267;28;19916;-82
2021/06/24 04:13:04;;;;;;;;;;;;;;;-142.75;66.85;77657.03;5053257;28;20297;-82
2021/06/24 04:15:29;;;;;;;;;;;;;;;-142.75;66.90;77653.09;5053426;28;19928;-82
2021/06/24 04:17:55;;;;;;;;;;;;;;;-142.75;66.85;77653.09;5053147;28;20281;-82
2021/06/24 04:20:20;;;;;;;;;;;;;;;-142.75;66.87;77655.06;5051381;28;19944;-81
2021/06/24 04:22:46;;;;;;;;;;;;;;;-142.75;66.88;77655.06;5070660;28;19924;-82
2021/06/24 04:25:13;;;;;;;;;;;;;;;-142.75;67.01;77653.09;5070499;28;19923;-81
2021/06/24 04:27:38;;;;;;;;;;;;;;;-142.75;67.21;77655.06;5052865;28;19943;-81
2021/06/24 04:30:04;;;;;;;;;;;;;;;-142.75;67.21;77657.03;5052325;28;19972;-81
2021/06/24 04:32:30;;;;;;;;;;;;;;;-142.75;67.22;77653.09;5052556;28;20413;-81
2021/06/24 04:34:55;;;;;;;;;;;;;;;-142.75;66.64;77649.16;5073201;28;19960;-81
2021/06/24 04:37:20;;;;;;;;;;;;;;;-142.75;66.85;77641.28;5056625;28;20382;-81
2021/06/24 04:39:46;;;;;;;;;;;;;;;-142.75;67.04;77645.22;5074296;28;19977;-81
2021/06/24 04:42:11;;;;;;;;;;;;;;;-142.75;67.07;77647.19;5057043;28;19962;-82
2021/06/24 04:44:37;;;;;;;;;;;;;;;-142.75;67.19;77645.22;5057317;28;20293;-81
2021/06/24 04:47:03;;;;;;;;;;;;;;;-142.75;67.27;77645.22;5073993;28;19921;-82
2021/06/24 04:49:28;;;;;;;;;;;;;;;-142.75;67.53;77645.22;5055535;28;19927;-81
2021/06/24 04:51:53;;;;;;;;;;;;;;;-142.75;67.62;77641.28;5056114;28;19923;-82
2021/06/24 04:54:19;;;;;;;;;;;;;;;-142.75;67.89;77637.34;5056594;28;19927;-82
2021/06/24 04:56:44;;;;;;;;;;;;;;;-142.75;67.79;77629.47;5056144;28;19917;-82
2021/06/24 04:59:10;;;;;;;;;;;;;;;-142.75;67.41;77629.47;5074435;28;20390;-81
2021/06/24 05:01:35;;;;;;;;;;;;;;;-142.75;67.04;77625.53;5073983;28;20277;-82
2021/06/24 05:04:00;;;;;;;;;;;;;;;-142.75;66.46;77625.53;5075314;28;19916;-82
2021/06/24 05:06:25;;;;;;;;;;;;;;;-142.75;66.15;77625.53;5057309;28;19924;-82
2021/06/24 05:08:50;;;;;;;;;;;;;;;-142.75;66.33;77615.69;5056373;28;20015;-81
2021/06/24 05:11:16;;;;;;;;;;;;;;;-142.75;65.90;77609.78;5055972;28;19928;-81
2021/06/24 05:13:41;;;;;;;;;;;;;;;-142.75;64.11;77619.63;5056292;28;20392;-80
2021/06/24 05:16:07;;;;;;;;;;;;;;;-142.75;64.81;77611.75;5056440;28;19928;-81
2021/06/24 05:18:33;;;;;;;;;;;;;;;-142.75;64.72;77601.91;5073294;28;19920;-82
2021/06/24 05:20:59;;;;;;;;;;;;;;;-142.75;65.48;77592.06;5073925;28;19920;-82
2021/06/24 05:23:25;;;;;;;;;;;;;;;-142.75;65.44;77590.09;5056164;28;19923;-82
2021/06/24 05:25:50;;;;;;;;;;;;;;;-142.75;65.37;77586.16;5057478;28;19920;-82
2021/06/24 05:28:15;;;;;;;;;;;;;;;-142.75;65.03;77586.16;5056592;28;19917;-81
2021/06/24 05:30:41;;;;;;;;;;;;;;;-142.75;64.72;77576.31;5075178;28;20412;-81
2021/06/24 05:33:06;;;;;;;;;;;;;;;-142.75;64.62;77570.41;5057666;28;19931;-81
2021/06/24 05:35:31;;;;;;;;;;;;;;;-142.75;65.05;77566.47;5057487;28;20508;-81
2021/06/24 05:37:57;;;;;;;;;;;;;;;-142.75;64.46;77564.50;5073347;28;19920;-81
2021/06/24 05:40:22;;;;;;;;;;;;;;;-142.75;64.38;77558.59;5073635;28;20279;-81
2021/06/24 05:42:48;;;;;;;;;;;;;;;-142.75;64.67;77546.78;5055927;28;19930;-81
2021/06/24 05:45:13;;;;;;;;;;;;;;;-142.75;63.95;77536.94;5074897;28;20393;-81
2021/06/24 05:47:39;;;;;;;;;;;;;;;-142.75;63.79;77536.94;5055404;28;19924;-81
2021/06/24 05:50:04;;;;;;;;;;;;;;;-142.75;63.74;77527.09;5074334;28;19987;-82
2021/06/24 05:52:29;;;;;;;;;;;;;;;-142.75;63.85;77527.09;5055803;28;19916;-81
2021/06/24 05:54:55;;;;;;;;;;;;;;;-142.75;64.24;77519.22;5056262;28;19962;-82
2021/06/24 05:57:20;;;;;;;;;;;;;;;-142.75;64.26;77515.28;5072496;28;19916;-82
2021/06/24 05:59:46;;;;;;;;;;;;;;;-142.75;63.80;77507.41;5055486;28;20439;-80
2021/06/24 06:02:11;;;;;;;;;;;;;;;-142.75;64.20;77507.41;5054995;28;19928;-80
2021/06/24 06:04:36;;;;;;;;;;;;;;;-142.75;63.99;77493.63;5074224;28;19921;-81
2021/06/24 06:07:02;;;;;;;;;;;;;;;-142.75;63.64;77481.81;5054664;28;19952;-82
2021/06/24 06:09:28;;;;;;;;;;;;;;;-142.75;63.62;77464.09;5074281;28;20049;-81
2021/06/24 06:11:54;;;;;;;;;;;;;;;-142.75;63.17;77456.22;5073999;28;20293;-80
2021/06/24 06:14:19;;;;;;;;;;;;;;;-142.75;62.48;77452.25;5056256;28;19916;-81
2021/06/24 06:16:45;;;;;;;;;;;;;;;-142.75;62.58;77448.34;5073390;28;19986;-82
2021/06/24 06:19:10;;;;;;;;;;;;;;;-142.75;62.25;77444.38;5055123;28;20006;-82
2021/06/24 06:21:36;;;;;;;;;;;;;;;-142.75;61.95;77428.63;5055307;28;20324;-81
2021/06/24 06:24:01;;;;;;;;;;;;;;;-142.75;62.41;77408.94;5072527;28;19924;-81
2021/06/24 06:26:27;;;;;;;;;;;;;;;-142.75;61.99;77397.13;5074260;28;20433;-81
2021/06/24 06:28:52;;;;;;;;;;;;;;;-142.75;61.43;77379.41;5056227;28;19939;-82
2021/06/24 06:31:21;;;;;;;;;;;;;;;-142.75;61.51;77363.66;5073708;28;19942;-81
2021/06/24 06:33:46;;;;;;;;;;;;;;;-142.75;61.70;77369.56;5074749;28;19959;-81
2021/06/24 06:36:11;;;;;;;;;;;;;;;-142.75;61.14;77361.69;5055294;28;19916;-80
2021/06/24 06:38:36;;;;;;;;;;;;;;;-142.75;60.34;77342.00;5074349;28;20378;-81
2021/06/24 06:41:02;;;;;;;;;;;;;;;-142.75;60.70;77334.13;5055383;28;19920;-81
2021/06/24 06:43:27;;;;;;;;;;;;;;;-142.75;60.69;77324.28;5074032;28;19938;-82
2021/06/24 06:45:52;;;;;;;;;;;;;;;-142.75;59.20;77318.38;5073717;28;19920;-80
2021/06/24 06:48:18;;;;;;;;;;;;;;;-142.75;60.30;77310.50;5054873;28;19920;-81
2021/06/24 06:50:43;;;;;;;;;;;;;;;-142.75;59.92;77310.50;5054303;28;20297;-80
2021/06/24 06:53:09;;;;;;;;;;;;;;;-142.75;59.77;77310.50;5072871;28;19916;-80
2021/06/24 06:55:34;;;;;;;;;;;;;;;-142.75;59.87;77306.56;5073840;28;19917;-82
2021/06/24 06:57:59;;;;;;;;;;;;;;;-142.75;59.47;77306.56;5072332;28;19981;-81
2021/06/24 07:00:25;;;;;;;;;;;;;;;-142.75;59.69;77304.59;5074034;28;19972;-80
2021/06/24 07:02:51;;;;;;;;;;;;;;;-142.75;59.22;77308.53;5058281;28;20039;-81
2021/06/24 07:05:16;;;;;;;;;;;;;;;-142.75;59.49;77298.69;5076769;28;19916;-81
2021/06/24 07:07:41;;;;;;;;;;;;;;;-142.75;60.02;77298.69;5075131;28;19996;-81
2021/06/24 07:10:07;;;;;;;;;;;;;;;-142.75;59.28;77292.78;5074933;28;19916;-80
2021/06/24 07:12:32;;;;;;;;;;;;;;;-142.75;60.66;77292.78;5056455;28;19920;-81
2021/06/24 07:14:57;;;;;;;;;;;;;;;-142.75;59.00;77294.75;5076517;28;19923;-80
2021/06/24 07:17:23;;;;;;;;;;;;;;;-142.75;59.57;77290.81;5073376;28;20620;-80
2021/06/24 07:19:48;;;;;;;;;;;;;;;-142.75;59.34;77279.00;5072948;28;19932;-78
2021/06/24 07:22:13;;;;;;;;;;;;;;;-142.75;59.16;77269.16;5072614;28;19920;-80
2021/06/24 07:24:38;;;;;;;;;;;;;;;-142.75;59.14;77267.19;5055407;28;20382;-80
2021/06/24 07:27:04;;;;;;;;;;;;;;;-142.75;58.82;77249.47;5072990;28;19932;-81
2021/06/24 07:29:29;;;;;;;;;;;;;;;-142.75;58.49;77235.69;5053780;28;19920;-81
2021/06/24 07:31:54;;;;;;;;;;;;;;;-142.75;58.53;77229.78;5072564;28;20410;-80
2021/06/24 07:34:19;;;;;;;;;;;;;;;-142.75;58.09;77225.84;5072005;28;20387;-80
2021/06/24 07:36:45;;;;;;;;;;;;;;;-142.75;57.97;77214.03;5072386;28;19943;-79
2021/06/24 07:39:11;;;;;;;;;;;;;;;-142.75;57.71;77200.25;5071728;28;20444;-80
2021/06/24 07:41:36;;;;;;;;;;;;;;;-142.75;57.21;77188.44;5053758;28;19920;-80
2021/06/24 07:44:01;;;;;;;;;;;;;;;-142.75;57.64;77182.53;5054693;28;19916;-80
2021/06/24 07:46:27;;;;;;;;;;;;;;;-142.75;57.33;77170.72;5054339;28;19924;-80
2021/06/24 07:48:52;;;;;;;;;;;;;;;-142.75;57.09;77154.97;5053590;28;19927;-80
2021/06/24 07:51:18;;;;;;;;;;;;;;;-142.75;56.80;77147.09;5052355;28;20454;-81
2021/06/24 07:53:43;;;;;;;;;;;;;;;-142.75;56.61;77129.38;5071843;28;20309;-80
2021/06/24 07:56:09;;;;;;;;;;;;;;;-142.75;56.03;77133.31;5054160;28;20404;-83
2021/06/24 07:58:35;;;;;;;;;;;;;;;-142.75;54.71;77129.38;5069923;28;20069;-81
2021/06/24 08:01:00;;;;;;;;;;;;;;;-142.75;55.34;77123.47;5071054;28;19931;-82
2021/06/24 08:03:25;;;;;;;;;;;;;;;-142.75;53.91;77117.56;5053108;28;19917;-80
2021/06/24 08:05:51;;;;;;;;;;;;;;;-142.75;55.39;77105.75;5054405;28;20374;-80
2021/06/24 08:08:16;;;;;;;;;;;;;;;-142.75;54.63;77097.88;5055260;28;19917;-80
2021/06/24 08:10:41;;;;;;;;;;;;;;;-142.75;54.83;77078.19;5058550;28;19916;-80
2021/06/24 08:13:06;;;;;;;;;;;;;;;-142.75;55.10;77050.63;5057675;28;20524;-80
2021/06/24 08:15:31;;;;;;;;;;;;;;;-142.75;54.92;77032.91;5059997;28;19924;-79
2021/06/24 08:17:57;;;;;;;;;;;;;;;-142.75;53.41;77013.22;5077355;28;19920;-80
2021/06/24 08:20:22;;;;;;;;;;;;;;;-142.75;53.57;76999.44;5077219;28;19920;-81
2021/06/24 08:22:47;;;;;;;;;;;;;;;-142.75;52.81;76989.59;5077452;28;19924;-80
2021/06/24 08:25:13;;;;;;;;;;;;;;;-142.75;52.55;76977.78;5060361;28;19934;-80
2021/06/24 08:27:39;;;;;;;;;;;;;;;-142.75;53.31;76971.88;5060660;28;19909;-80
2021/06/24 08:30:05;;;;;;;;;;;;;;;-142.75;53.27;76965.97;5060506;28;20199;-80
2021/06/24 08:32:30;;;;;;;;;;;;;;;-142.75;53.16;76971.88;5079434;28;19938;-79
2021/06/24 08:34:55;;;;;;;;;;;;;;;-142.75;51.81;76964.00;5061542;28;19958;-79
2021/06/24 08:37:21;;;;;;;;;;;;;;;-142.75;53.42;76964.00;5078541;28;19941;-80
2021/06/24 08:39:48;;;;;;;;;;;;;;;-142.75;52.59;76965.97;5059443;28;19920;-78
2021/06/24 08:42:14;;;;;;;;;;;;;;;-142.75;52.89;76971.88;5078734;28;19932;-79
2021/06/24 08:44:39;;;;;;;;;;;;;;;-142.75;52.63;76981.72;5078669;28;19916;-80
2021/06/24 08:47:06;;;;;;;;;;;;;;;-142.75;52.95;76983.69;5077528;28;19948;-80
2021/06/24 08:49:32;;;;;;;;;;;;;;;-142.75;53.37;76981.72;5077925;28;19924;-81
2021/06/24 08:51:58;;;;;;;;;;;;;;;-142.75;53.02;76983.69;5059955;28;19920;-80
2021/06/24 08:54:24;;;;;;;;;;;;;;;-142.75;51.73;76985.66;5077851;28;19925;-80
2021/06/24 08:56:49;;;;;;;;;;;;;;;-142.75;52.84;76999.44;5061566;28;19925;-80
2021/06/24 08:59:14;;;;;;;;;;;;;;;-142.75;53.12;76999.44;5060835;28;19924;-78
2021/06/24 09:01:51;;;;;;;;;;;;;;;-142.75;52.52;77003.38;5078314;28;20022;-80
2021/06/24 09:04:17;;;;;;;;;;;;;;;-142.75;52.15;76989.59;5077755;28;19917;-81
2021/06/24 09:06:42;;;;;;;;;;;;;;;-142.75;52.44;76979.75;5077560;28;19962;-79
2021/06/24 09:09:07;;;;;;;;;;;;;;;-142.75;52.38;76965.97;5061886;28;19995;-79
2021/06/24 09:11:32;;;;;;;;;;;;;;;-142.75;51.27;76975.81;5079122;28;19921;-79
2021/06/24 09:13:59;;;;;;;;;;;;;;;-142.75;52.96;76977.78;5078857;28;20301;-79
2021/06/24 09:16:26;;;;;;;;;;;;;;;-142.75;53.24;76965.97;5060239;28;19916;-78
2021/06/24 09:18:51;;;;;;;;;;;;;;;-142.75;53.22;76932.50;5079379;28;19924;-79
2021/06/24 09:21:18;;;;;;;;;;;;;;;-142.75;52.06;76908.88;5077909;28;19920;-80
2021/06/24 09:23:43;;;;;;;;;;;;;;;-142.75;50.80;76897.06;5078561;28;19924;-80
2021/06/24 09:26:14;;;;;;;;;;;;;;;-142.75;49.54;76897.06;5060410;28;19923;-81
2021/06/24 09:28:40;;;;;;;;;;;;;;;-142.75;51.43;76883.28;5078426;28;19916;-81
2021/06/24 09:31:19;;;;;;;;;;;;;;;-142.75;49.21;76881.31;5059026;28;19916;-80
2021/06/24 09:33:44;;;;;;;;;;;;;;;-142.75;51.51;76869.50;5059373;28;19966;-80
2021/06/24 09:36:09;;;;;;;;;;;;;;;-142.75;49.90;76867.53;5059085;28;19916;-80
2021/06/24 09:38:40;;;;;;;;;;;;;;;-142.75;50.61;76861.63;5058413;28;19916;-79
2021/06/24 09:41:13;;;;;;;;;;;;;;;-142.75;50.34;76830.13;5074277;28;20016;-80
2021/06/24 09:43:41;;;;;;;;;;;;;;;-142.75;49.74;76834.06;5077333;28;20332;-78
2021/06/24 09:46:14;;;;;;;;;;;;;;;-142.75;50.26;76836.03;5059276;28;19916;-78
2021/06/24 09:48:40;;;;;;;;;;;;;;;-142.75;49.48;76841.94;5074164;28;19916;-79
2021/06/24 09:51:26;;;;;;;;;;;;;;;-142.75;50.16;76853.75;5058792;28;19924;-79
2021/06/24 09:53:55;;;;;;;;;;;;;;;-142.75;50.71;76857.69;5057722;28;19924;-79
2021/06/24 09:56:25;;;;;;;;;;;;;;;-142.75;49.51;76853.75;5059630;28;20382;-78
2021/06/24 09:58:51;;;;;;;;;;;;;;;-142.75;50.50;76838.00;5076464;28;19924;-78
2021/06/24 10:01:27;;;;;;;;;;;;;;;-142.75;50.37;76834.06;5057152;28;19921;-78
2021/06/24 10:03:54;;;;;;;;;;;;;;;-142.75;49.97;76810.44;5058975;28;19982;-78
2021/06/24 10:06:19;;;;;;;;;;;;;;;-142.75;49.12;76792.75;5099235;22;19924;-80
2021/06/24 10:08:45;;;;;;;;;;;;;;;-142.75;49.08;76757.31;5075221;28;19927;-81
2021/06/24 10:11:10;;;;;;;;;;;;;;;-142.75;48.97;76761.25;5073109;28;19938;-79
2021/06/24 10:13:35;;;;;;;;;;;;;;;-142.75;45.65;76763.22;5073413;28;20400;-80
2021/06/24 10:16:01;;;;;;;;;;;;;;;-142.75;47.27;76759.28;5070080;28;19920;-80
2021/06/24 10:18:27;;;;;;;;;;;;;;;-142.75;45.24;76798.66;5053188;28;19925;-78
2021/06/24 10:20:53;;;;;;;;;;;;;;;-142.75;48.42;76800.63;5053188;28;19920;-79
2021/06/24 10:23:18;;;;;;;;;;;;;;;-142.75;47.52;76751.41;5070387;28;20302;-79
2021/06/24 10:25:45;;;;;;;;;;;;;;;-142.75;47.52;76712.03;5052491;28;20031;-81
2021/06/24 10:28:10;;;;;;;;;;;;;;;-142.75;46.77;76672.66;5056340;28;20006;-78
2021/06/24 10:30:37;;;;;;;;;;;;;;;-142.75;43.95;76684.47;5052242;28;19960;-79
2021/06/24 10:33:03;;;;;;;;;;;;;;;-142.75;45.12;76664.78;5069058;28;19952;-79
2021/06/24 10:35:36;;;;;;;;;;;;;;;-142.75;46.60;76637.22;5067190;28;19924;-79
2021/06/24 10:38:01;;;;;;;;;;;;;;;-142.75;43.31;76662.81;5054705;28;19921;-79
2021/06/24 10:40:37;;;;;;;;;;;;;;;-142.75;46.03;76666.75;5072726;28;19929;-78
2021/06/24 10:43:04;;;;;;;;;;;;;;;-142.75;45.81;76672.66;5051576;28;19951;-79
2021/06/24 10:45:29;;;;;;;;;;;;;;;-142.75;46.08;76654.94;5066222;28;19925;-78
2021/06/24 10:47:56;;;;;;;;;;;;;;;-142.75;47.27;76629.34;5055916;28;19940;-79
2021/06/24 10:50:34;;;;;;;;;;;;;;;-142.75;45.78;76597.84;5051876;28;20401;-79
2021/06/24 10:52:59;;;;;;;;;;;;;;;-142.75;43.72;76605.72;5049508;28;19939;-78
2021/06/24 10:55:39;;;;;;;;;;;;;;;-142.75;44.83;76582.09;5052276;28;20370;-78
2021/06/24 10:58:10;;;;;;;;;;;;;;;-142.75;45.81;76548.63;5055480;28;19924;-78
2021/06/24 11:00:36;;;;;;;;;;;;;;;-142.75;45.72;76540.75;5073677;28;19936;-79
2021/06/24 11:03:02;;;;;;;;;;;;;;;-142.75;44.64;76576.19;5054916;28;19920;-78
2021/06/24 11:05:38;;;;;;;;;;;;;;;-142.75;45.75;76597.84;5065837;28;19970;-78
2021/06/24 11:08:14;;;;;;;;;;;;;;;-142.75;44.99;76574.22;5049347;28;20382;-78
2021/06/24 11:10:58;;;;;;;;;;;;;;;-142.75;44.76;76540.75;5050703;28;19916;-78
2021/06/24 11:13:42;;;;;;;;;;;;;;;-142.75;44.10;76495.50;5054414;28;20369;-78
2021/06/24 11:16:10;;;;;;;;;;;;;;;-142.75;43.23;76471.88;5073195;28;20385;-78
2021/06/24 11:18:36;;;;;;;;;;;;;;;-142.75;42.43;76471.88;5073031;28;19916;-77
2021/06/24 11:21:05;;;;;;;;;;;;;;;-142.75;44.12;76517.16;5065515;28;19978;-80
2021/06/24 11:23:37;;;;;;;;;;;;;;;-142.75;46.33;76564.38;5068343;28;20599;-78
2021/06/24 11:26:06;;;;;;;;;;;;;;;-142.75;44.58;76542.72;5071833;28;20347;-78
2021/06/24 11:28:43;;;;;;;;;;;;;;;-142.75;43.18;76593.91;5072597;28;20410;-78
2021/06/24 11:31:09;;;;;;;;;;;;;;;-142.75;47.51;76619.50;5053330;28;19925;-77
2021/06/24 11:33:40;;;;;;;;;;;;;;;-142.75;46.35;76599.81;5071282;28;20369;-76
2021/06/24 11:36:19;;;;;;;;;;;;;;;-142.75;45.57;76584.06;5053472;28;19970;-77
2021/06/24 11:38:46;;;;;;;;;;;;;;;-142.75;45.56;76570.28;5071166;28;19916;-77
2021/06/24 11:41:12;;;;;;;;;;;;;;;-142.75;45.19;76578.16;5053029;28;19924;-78
2021/06/24 11:43:39;;;;;;;;;;;;;;;-142.75;45.93;76473.84;5052876;28;19966;-78
2021/06/24 11:46:04;;;;;;;;;;;;;;;-142.75;45.09;76406.91;5053587;28;20530;-78
2021/06/24 11:48:29;;;;;;;;;;;;;;;-142.75;42.71;76383.28;5071138;28;20043;-78
2021/06/24 12:05:11;;;;;;;;;;;;;;;-142.75;43.92;76647.06;5006575;28;20007;-77
2021/06/24 12:07:36;;;;;;;;;;;;;;;-142.75;45.43;76670.69;5066029;28;19999;-78
2021/06/24 12:10:03;;;;;;;;;;;;;;;-142.75;46.22;76719.91;5058554;28;19923;-78
2021/06/24 12:12:30;;;;;;;;;;;;;;;-142.75;45.25;76682.50;5052805;28;19917;-77
2021/06/24 12:14:57;;;;;;;;;;;;;;;-142.75;44.74;76641.16;5070891;28;20273;-77
2021/06/24 12:17:24;;;;;;;;;;;;;;;-142.75;44.82;76649.03;5052810;28;20058;-77
2021/06/24 12:19:56;;;;;;;;;;;;;;;-142.75;47.50;76580.13;5052639;28;19924;-75
2021/06/24 12:22:38;;;;;;;;;;;;;;;-142.75;45.43;76540.75;5070726;28;20500;-77
2021/06/24 12:25:06;;;;;;;;;;;;;;;-142.75;45.53;76503.38;5052833;28;20444;-77
2021/06/24 12:27:33;;;;;;;;;;;;;;;-142.75;45.13;76493.53;5070622;28;19920;-76
2021/06/24 12:29:59;;;;;;;;;;;;;;;-142.75;43.67;76507.31;5052989;28;19917;-77
2021/06/24 12:32:25;;;;;;;;;;;;;;;-142.75;43.04;76528.97;5052643;28;19916;-76
2021/06/24 12:34:53;;;;;;;;;;;;;;;-142.75;45.81;76536.84;5070691;28;19923;-75
2021/06/24 12:37:33;;;;;;;;;;;;;;;-142.75;44.70;76503.38;5052438;28;19999;-77